sensor_id;sensor_type;location;lat;lon;timestamp;P1;durP1;ratioP1;P2;durP2;ratioP2
67867;SDS011;54672;46.096;14.470;2024-03-02T00:00:15;36.65;;;16.45;;
67867;SDS011;54672;46.096;14.470;2024-03-02T00:02:44;52.63;;;16.95;;
67867;SDS011;54672;46.096;14.470;2024-03-02T00:05:14;53.97;;;16.35;;
67867;SDS011;54672;46.096;14.470;2024-03-02T00:07:44;47.58;;;17.45;;
67867;SDS011;54672;46.096;14.470;2024-03-02T00:10:19;41.50;;;16.27;;
67867;SDS011;54672;46.096;14.470;2024-03-02T00:12:48;44.35;;;16.33;;
67867;SDS011;54672;46.096;14.470;2024-03-02T00:15:29;49.20;;;16.17;;
67867;SDS011;54672;46.096;14.470;2024-03-02T00:18:40;63.45;;;17.52;;
67867;SDS011;54672;46.096;14.470;2024-03-02T00:21:05;49.97;;;16.98;;
67867;SDS011;54672;46.096;14.470;2024-03-02T00:23:34;51.92;;;19.13;;
67867;SDS011;54672;46.096;14.470;2024-03-02T00:26:00;42.30;;;18.50;;
67867;SDS011;54672;46.096;14.470;2024-03-02T00:28:33;51.22;;;18.35;;
67867;SDS011;54672;46.096;14.470;2024-03-02T00:31:09;40.22;;;17.17;;
67867;SDS011;54672;46.096;14.470;2024-03-02T00:33:40;43.92;;;17.70;;
67867;SDS011;54672;46.096;14.470;2024-03-02T00:36:09;47.83;;;19.38;;
67867;SDS011;54672;46.096;14.470;2024-03-02T00:38:41;48.38;;;18.58;;
67867;SDS011;54672;46.096;14.470;2024-03-02T00:41:07;45.38;;;18.15;;
67867;SDS011;54672;46.096;14.470;2024-03-02T00:43:43;44.63;;;17.83;;
67867;SDS011;54672;46.096;14.470;2024-03-02T00:46:12;40.67;;;16.42;;
67867;SDS011;54672;46.096;14.470;2024-03-02T00:51:49;55.75;;;16.55;;
67867;SDS011;54672;46.096;14.470;2024-03-02T00:54:22;52.30;;;16.60;;
67867;SDS011;54672;46.096;14.470;2024-03-02T00:56:50;53.25;;;15.20;;
67867;SDS011;54672;46.096;14.470;2024-03-02T00:59:16;55.10;;;16.08;;
67867;SDS011;54672;46.096;14.470;2024-03-02T01:01:42;57.83;;;16.17;;
67867;SDS011;54672;46.096;14.470;2024-03-02T01:04:08;75.50;;;16.88;;
67867;SDS011;54672;46.096;14.470;2024-03-02T01:06:37;64.72;;;15.70;;
67867;SDS011;54672;46.096;14.470;2024-03-02T01:09:03;42.03;;;14.82;;
67867;SDS011;54672;46.096;14.470;2024-03-02T01:11:29;54.85;;;16.30;;
67867;SDS011;54672;46.096;14.470;2024-03-02T01:13:55;57.08;;;15.07;;
67867;SDS011;54672;46.096;14.470;2024-03-02T01:16:20;53.28;;;15.30;;
67867;SDS011;54672;46.096;14.470;2024-03-02T01:18:46;45.65;;;14.50;;
67867;SDS011;54672;46.096;14.470;2024-03-02T01:21:11;44.25;;;15.73;;
67867;SDS011;54672;46.096;14.470;2024-03-02T01:23:37;47.25;;;15.65;;
67867;SDS011;54672;46.096;14.470;2024-03-02T01:26:02;36.42;;;14.10;;
67867;SDS011;54672;46.096;14.470;2024-03-02T01:28:28;37.42;;;14.55;;
67867;SDS011;54672;46.096;14.470;2024-03-02T01:30:54;32.35;;;12.98;;
67867;SDS011;54672;46.096;14.470;2024-03-02T01:33:19;41.45;;;13.38;;
67867;SDS011;54672;46.096;14.470;2024-03-02T01:35:46;41.88;;;15.15;;
67867;SDS011;54672;46.096;14.470;2024-03-02T01:38:12;29.55;;;11.45;;
67867;SDS011;54672;46.096;14.470;2024-03-02T01:40:38;42.60;;;15.13;;
67867;SDS011;54672;46.096;14.470;2024-03-02T01:43:04;45.80;;;16.00;;
67867;SDS011;54672;46.096;14.470;2024-03-02T01:45:30;43.47;;;14.63;;
67867;SDS011;54672;46.096;14.470;2024-03-02T01:47:56;43.30;;;15.85;;
67867;SDS011;54672;46.096;14.470;2024-03-02T01:50:26;49.75;;;14.65;;
67867;SDS011;54672;46.096;14.470;2024-03-02T01:52:55;43.15;;;14.75;;
67867;SDS011;54672;46.096;14.470;2024-03-02T01:55:21;41.22;;;16.17;;
67867;SDS011;54672;46.096;14.470;2024-03-02T01:57:47;48.50;;;15.52;;
67867;SDS011;54672;46.096;14.470;2024-03-02T02:00:14;38.35;;;14.90;;
67867;SDS011;54672;46.096;14.470;2024-03-02T02:02:40;42.38;;;14.93;;
67867;SDS011;54672;46.096;14.470;2024-03-02T02:05:06;42.45;;;16.08;;
67867;SDS011;54672;46.096;14.470;2024-03-02T02:07:32;39.22;;;13.98;;
67867;SDS011;54672;46.096;14.470;2024-03-02T02:10:00;38.90;;;15.70;;
67867;SDS011;54672;46.096;14.470;2024-03-02T02:12:26;39.00;;;15.50;;
67867;SDS011;54672;46.096;14.470;2024-03-02T02:14:52;34.53;;;13.15;;
67867;SDS011;54672;46.096;14.470;2024-03-02T02:17:17;31.52;;;14.15;;
67867;SDS011;54672;46.096;14.470;2024-03-02T02:19:43;36.22;;;14.38;;
67867;SDS011;54672;46.096;14.470;2024-03-02T02:22:09;38.58;;;15.13;;
67867;SDS011;54672;46.096;14.470;2024-03-02T02:24:35;38.25;;;15.30;;
67867;SDS011;54672;46.096;14.470;2024-03-02T02:27:01;35.88;;;13.60;;
67867;SDS011;54672;46.096;14.470;2024-03-02T02:29:27;36.67;;;14.70;;
67867;SDS011;54672;46.096;14.470;2024-03-02T02:31:52;33.13;;;13.52;;
67867;SDS011;54672;46.096;14.470;2024-03-02T02:34:17;33.53;;;13.52;;
67867;SDS011;54672;46.096;14.470;2024-03-02T02:36:43;56.47;;;19.88;;
67867;SDS011;54672;46.096;14.470;2024-03-02T02:39:10;40.90;;;16.20;;
67867;SDS011;54672;46.096;14.470;2024-03-02T02:41:38;40.03;;;14.88;;
67867;SDS011;54672;46.096;14.470;2024-03-02T02:44:04;33.92;;;14.35;;
67867;SDS011;54672;46.096;14.470;2024-03-02T02:46:29;35.58;;;14.55;;
67867;SDS011;54672;46.096;14.470;2024-03-02T02:48:55;38.08;;;15.65;;
67867;SDS011;54672;46.096;14.470;2024-03-02T02:51:20;39.15;;;15.57;;
67867;SDS011;54672;46.096;14.470;2024-03-02T02:53:46;38.55;;;14.35;;
67867;SDS011;54672;46.096;14.470;2024-03-02T02:56:12;38.33;;;15.32;;
67867;SDS011;54672;46.096;14.470;2024-03-02T02:58:37;37.80;;;13.82;;
67867;SDS011;54672;46.096;14.470;2024-03-02T03:01:04;36.65;;;14.85;;
67867;SDS011;54672;46.096;14.470;2024-03-02T03:03:30;36.17;;;14.35;;
67867;SDS011;54672;46.096;14.470;2024-03-02T03:05:55;34.45;;;13.75;;
67867;SDS011;54672;46.096;14.470;2024-03-02T03:08:20;34.13;;;13.75;;
67867;SDS011;54672;46.096;14.470;2024-03-02T03:10:48;35.22;;;13.38;;
67867;SDS011;54672;46.096;14.470;2024-03-02T03:13:14;33.55;;;13.38;;
67867;SDS011;54672;46.096;14.470;2024-03-02T03:15:40;36.88;;;13.13;;
67867;SDS011;54672;46.096;14.470;2024-03-02T03:18:06;34.90;;;14.23;;
67867;SDS011;54672;46.096;14.470;2024-03-02T03:20:35;40.45;;;12.85;;
67867;SDS011;54672;46.096;14.470;2024-03-02T03:23:01;37.42;;;13.77;;
67867;SDS011;54672;46.096;14.470;2024-03-02T03:25:27;37.15;;;13.63;;
67867;SDS011;54672;46.096;14.470;2024-03-02T03:27:52;35.50;;;13.27;;
67867;SDS011;54672;46.096;14.470;2024-03-02T03:30:18;34.58;;;12.65;;
67867;SDS011;54672;46.096;14.470;2024-03-02T03:32:43;37.30;;;14.50;;
67867;SDS011;54672;46.096;14.470;2024-03-02T03:35:09;35.67;;;14.00;;
67867;SDS011;54672;46.096;14.470;2024-03-02T03:37:34;38.15;;;13.48;;
67867;SDS011;54672;46.096;14.470;2024-03-02T03:40:00;38.85;;;13.60;;
67867;SDS011;54672;46.096;14.470;2024-03-02T03:42:26;35.97;;;13.00;;
67867;SDS011;54672;46.096;14.470;2024-03-02T03:44:52;35.13;;;12.93;;
67867;SDS011;54672;46.096;14.470;2024-03-02T03:47:17;37.13;;;13.68;;
67867;SDS011;54672;46.096;14.470;2024-03-02T03:49:43;33.45;;;13.18;;
67867;SDS011;54672;46.096;14.470;2024-03-02T03:52:09;39.95;;;14.00;;
67867;SDS011;54672;46.096;14.470;2024-03-02T03:54:34;34.35;;;12.30;;
67867;SDS011;54672;46.096;14.470;2024-03-02T03:57:02;34.83;;;12.40;;
67867;SDS011;54672;46.096;14.470;2024-03-02T03:59:27;36.38;;;13.32;;
67867;SDS011;54672;46.096;14.470;2024-03-02T04:01:53;37.60;;;14.18;;
67867;SDS011;54672;46.096;14.470;2024-03-02T04:04:18;34.10;;;12.73;;
67867;SDS011;54672;46.096;14.470;2024-03-02T04:06:44;32.92;;;13.48;;
67867;SDS011;54672;46.096;14.470;2024-03-02T04:09:10;36.45;;;13.35;;
67867;SDS011;54672;46.096;14.470;2024-03-02T04:11:35;39.67;;;13.65;;
67867;SDS011;54672;46.096;14.470;2024-03-02T04:14:01;41.78;;;14.85;;
67867;SDS011;54672;46.096;14.470;2024-03-02T04:16:27;41.33;;;14.32;;
67867;SDS011;54672;46.096;14.470;2024-03-02T04:18:53;38.90;;;14.40;;
67867;SDS011;54672;46.096;14.470;2024-03-02T04:21:19;43.25;;;15.35;;
67867;SDS011;54672;46.096;14.470;2024-03-02T04:23:45;36.05;;;14.38;;
67867;SDS011;54672;46.096;14.470;2024-03-02T04:26:10;38.55;;;14.73;;
67867;SDS011;54672;46.096;14.470;2024-03-02T04:28:36;38.85;;;14.45;;
67867;SDS011;54672;46.096;14.470;2024-03-02T04:31:01;33.42;;;12.57;;
67867;SDS011;54672;46.096;14.470;2024-03-02T04:33:26;36.28;;;12.68;;
67867;SDS011;54672;46.096;14.470;2024-03-02T04:35:52;32.85;;;13.93;;
67867;SDS011;54672;46.096;14.470;2024-03-02T04:38:17;43.17;;;14.50;;
67867;SDS011;54672;46.096;14.470;2024-03-02T04:40:43;39.10;;;13.30;;
67867;SDS011;54672;46.096;14.470;2024-03-02T04:43:08;34.50;;;13.48;;
67867;SDS011;54672;46.096;14.470;2024-03-02T04:45:34;38.05;;;14.00;;
67867;SDS011;54672;46.096;14.470;2024-03-02T04:48:01;41.58;;;14.05;;
67867;SDS011;54672;46.096;14.470;2024-03-02T04:50:26;47.33;;;15.38;;
67867;SDS011;54672;46.096;14.470;2024-03-02T04:52:52;31.73;;;12.95;;
67867;SDS011;54672;46.096;14.470;2024-03-02T04:55:17;37.78;;;14.57;;
67867;SDS011;54672;46.096;14.470;2024-03-02T04:58:09;39.20;;;14.98;;
67867;SDS011;54672;46.096;14.470;2024-03-02T05:00:35;42.08;;;15.90;;
67867;SDS011;54672;46.096;14.470;2024-03-02T05:03:01;40.17;;;15.02;;
67867;SDS011;54672;46.096;14.470;2024-03-02T05:05:27;44.20;;;16.33;;
67867;SDS011;54672;46.096;14.470;2024-03-02T05:07:52;42.35;;;14.93;;
67867;SDS011;54672;46.096;14.470;2024-03-02T05:10:18;41.25;;;14.18;;
67867;SDS011;54672;46.096;14.470;2024-03-02T05:12:44;45.13;;;15.57;;
67867;SDS011;54672;46.096;14.470;2024-03-02T05:15:09;48.10;;;15.13;;
67867;SDS011;54672;46.096;14.470;2024-03-02T05:17:36;45.67;;;13.52;;
67867;SDS011;54672;46.096;14.470;2024-03-02T05:20:03;48.63;;;14.48;;
67867;SDS011;54672;46.096;14.470;2024-03-02T05:22:29;41.33;;;14.55;;
67867;SDS011;54672;46.096;14.470;2024-03-02T05:24:54;49.63;;;15.05;;
67867;SDS011;54672;46.096;14.470;2024-03-02T05:27:21;40.80;;;14.73;;
67867;SDS011;54672;46.096;14.470;2024-03-02T05:29:47;42.15;;;13.95;;
67867;SDS011;54672;46.096;14.470;2024-03-02T05:32:12;40.20;;;13.23;;
67867;SDS011;54672;46.096;14.470;2024-03-02T05:34:37;40.80;;;14.20;;
67867;SDS011;54672;46.096;14.470;2024-03-02T05:37:03;45.80;;;15.57;;
67867;SDS011;54672;46.096;14.470;2024-03-02T05:39:28;46.03;;;16.20;;
67867;SDS011;54672;46.096;14.470;2024-03-02T05:41:54;40.30;;;13.68;;
67867;SDS011;54672;46.096;14.470;2024-03-02T05:44:19;42.83;;;13.85;;
67867;SDS011;54672;46.096;14.470;2024-03-02T05:46:45;45.38;;;14.80;;
67867;SDS011;54672;46.096;14.470;2024-03-02T05:49:11;34.63;;;13.20;;
67867;SDS011;54672;46.096;14.470;2024-03-02T05:51:36;41.42;;;13.68;;
67867;SDS011;54672;46.096;14.470;2024-03-02T05:54:02;38.55;;;14.27;;
67867;SDS011;54672;46.096;14.470;2024-03-02T05:56:28;38.95;;;13.32;;
67867;SDS011;54672;46.096;14.470;2024-03-02T05:58:54;31.15;;;13.18;;
67867;SDS011;54672;46.096;14.470;2024-03-02T06:01:44;44.33;;;15.80;;
67867;SDS011;54672;46.096;14.470;2024-03-02T06:04:11;37.30;;;14.20;;
67867;SDS011;54672;46.096;14.470;2024-03-02T06:06:40;44.58;;;14.85;;
67867;SDS011;54672;46.096;14.470;2024-03-02T06:09:06;39.45;;;15.48;;
67867;SDS011;54672;46.096;14.470;2024-03-02T06:11:38;36.88;;;14.57;;
67867;SDS011;54672;46.096;14.470;2024-03-02T06:14:06;40.35;;;14.52;;
67867;SDS011;54672;46.096;14.470;2024-03-02T06:16:33;41.10;;;15.25;;
67867;SDS011;54672;46.096;14.470;2024-03-02T06:18:58;35.25;;;14.27;;
67867;SDS011;54672;46.096;14.470;2024-03-02T06:21:24;42.72;;;15.35;;
67867;SDS011;54672;46.096;14.470;2024-03-02T06:23:50;38.08;;;14.63;;
67867;SDS011;54672;46.096;14.470;2024-03-02T06:26:16;34.97;;;14.63;;
67867;SDS011;54672;46.096;14.470;2024-03-02T06:28:41;37.13;;;14.38;;
67867;SDS011;54672;46.096;14.470;2024-03-02T06:31:08;36.60;;;13.60;;
67867;SDS011;54672;46.096;14.470;2024-03-02T06:33:33;37.95;;;16.00;;
67867;SDS011;54672;46.096;14.470;2024-03-02T06:35:59;31.90;;;14.73;;
67867;SDS011;54672;46.096;14.470;2024-03-02T06:38:25;34.42;;;14.45;;
67867;SDS011;54672;46.096;14.470;2024-03-02T06:40:50;34.53;;;13.57;;
67867;SDS011;54672;46.096;14.470;2024-03-02T06:43:16;31.33;;;12.65;;
67867;SDS011;54672;46.096;14.470;2024-03-02T06:45:41;41.33;;;15.73;;
67867;SDS011;54672;46.096;14.470;2024-03-02T06:48:07;39.60;;;14.57;;
67867;SDS011;54672;46.096;14.470;2024-03-02T06:50:32;31.48;;;13.27;;
67867;SDS011;54672;46.096;14.470;2024-03-02T06:52:58;35.33;;;14.60;;
67867;SDS011;54672;46.096;14.470;2024-03-02T06:55:23;31.20;;;13.10;;
67867;SDS011;54672;46.096;14.470;2024-03-02T06:57:49;33.63;;;13.60;;
67867;SDS011;54672;46.096;14.470;2024-03-02T07:00:16;37.45;;;14.07;;
67867;SDS011;54672;46.096;14.470;2024-03-02T07:02:43;31.27;;;13.15;;
67867;SDS011;54672;46.096;14.470;2024-03-02T07:05:09;36.53;;;13.00;;
67867;SDS011;54672;46.096;14.470;2024-03-02T07:07:35;33.35;;;13.52;;
67867;SDS011;54672;46.096;14.470;2024-03-02T07:10:01;32.42;;;12.48;;
67867;SDS011;54672;46.096;14.470;2024-03-02T07:12:28;32.75;;;12.52;;
67867;SDS011;54672;46.096;14.470;2024-03-02T07:14:53;33.63;;;14.00;;
67867;SDS011;54672;46.096;14.470;2024-03-02T07:17:35;32.60;;;13.55;;
67867;SDS011;54672;46.096;14.470;2024-03-02T07:20:02;33.35;;;12.00;;
67867;SDS011;54672;46.096;14.470;2024-03-02T07:22:28;35.42;;;12.98;;
67867;SDS011;54672;46.096;14.470;2024-03-02T07:24:54;31.88;;;13.40;;
67867;SDS011;54672;46.096;14.470;2024-03-02T07:27:21;35.80;;;13.38;;
67867;SDS011;54672;46.096;14.470;2024-03-02T07:29:47;39.00;;;14.23;;
67867;SDS011;54672;46.096;14.470;2024-03-02T07:32:12;40.00;;;13.73;;
67867;SDS011;54672;46.096;14.470;2024-03-02T07:34:37;47.47;;;15.18;;
67867;SDS011;54672;46.096;14.470;2024-03-02T07:37:03;39.72;;;15.48;;
67867;SDS011;54672;46.096;14.470;2024-03-02T07:39:29;45.45;;;15.88;;
67867;SDS011;54672;46.096;14.470;2024-03-02T07:41:55;40.95;;;15.85;;
67867;SDS011;54672;46.096;14.470;2024-03-02T07:44:21;38.00;;;15.73;;
67867;SDS011;54672;46.096;14.470;2024-03-02T07:46:46;44.13;;;14.77;;
67867;SDS011;54672;46.096;14.470;2024-03-02T07:49:14;37.33;;;13.32;;
67867;SDS011;54672;46.096;14.470;2024-03-02T07:51:40;42.97;;;13.98;;
67867;SDS011;54672;46.096;14.470;2024-03-02T07:54:06;43.15;;;13.75;;
67867;SDS011;54672;46.096;14.470;2024-03-02T07:56:31;38.92;;;14.38;;
67867;SDS011;54672;46.096;14.470;2024-03-02T07:58:57;45.03;;;15.05;;
67867;SDS011;54672;46.096;14.470;2024-03-02T08:01:27;44.28;;;16.05;;
67867;SDS011;54672;46.096;14.470;2024-03-02T08:03:55;43.90;;;14.00;;
67867;SDS011;54672;46.096;14.470;2024-03-02T08:06:23;41.55;;;13.13;;
67867;SDS011;54672;46.096;14.470;2024-03-02T08:08:52;35.95;;;13.20;;
67867;SDS011;54672;46.096;14.470;2024-03-02T08:11:18;37.90;;;13.40;;
67867;SDS011;54672;46.096;14.470;2024-03-02T08:13:44;43.83;;;16.08;;
67867;SDS011;54672;46.096;14.470;2024-03-02T08:16:09;40.33;;;14.52;;
67867;SDS011;54672;46.096;14.470;2024-03-02T08:18:35;41.15;;;15.77;;
67867;SDS011;54672;46.096;14.470;2024-03-02T08:21:00;31.88;;;12.93;;
67867;SDS011;54672;46.096;14.470;2024-03-02T08:23:26;32.30;;;14.00;;
67867;SDS011;54672;46.096;14.470;2024-03-02T08:25:52;34.78;;;13.48;;
67867;SDS011;54672;46.096;14.470;2024-03-02T08:28:17;31.20;;;13.27;;
67867;SDS011;54672;46.096;14.470;2024-03-02T08:30:43;41.85;;;14.82;;
67867;SDS011;54672;46.096;14.470;2024-03-02T08:33:08;33.95;;;12.65;;
67867;SDS011;54672;46.096;14.470;2024-03-02T08:35:34;35.92;;;13.45;;
67867;SDS011;54672;46.096;14.470;2024-03-02T08:38:03;30.60;;;13.23;;
67867;SDS011;54672;46.096;14.470;2024-03-02T08:40:29;34.40;;;13.18;;
67867;SDS011;54672;46.096;14.470;2024-03-02T08:42:55;41.35;;;14.52;;
67867;SDS011;54672;46.096;14.470;2024-03-02T08:45:21;38.78;;;14.45;;
67867;SDS011;54672;46.096;14.470;2024-03-02T08:47:46;34.28;;;12.98;;
67867;SDS011;54672;46.096;14.470;2024-03-02T08:50:12;33.88;;;13.20;;
67867;SDS011;54672;46.096;14.470;2024-03-02T08:52:38;38.17;;;14.82;;
67867;SDS011;54672;46.096;14.470;2024-03-02T08:55:03;35.10;;;12.70;;
67867;SDS011;54672;46.096;14.470;2024-03-02T08:57:29;30.77;;;12.77;;
67867;SDS011;54672;46.096;14.470;2024-03-02T08:59:55;28.45;;;11.45;;
67867;SDS011;54672;46.096;14.470;2024-03-02T09:02:21;27.05;;;12.85;;
67867;SDS011;54672;46.096;14.470;2024-03-02T09:04:46;23.65;;;10.85;;
67867;SDS011;54672;46.096;14.470;2024-03-02T09:07:12;22.80;;;9.75;;
67867;SDS011;54672;46.096;14.470;2024-03-02T09:09:37;25.58;;;10.45;;
67867;SDS011;54672;46.096;14.470;2024-03-02T09:12:04;29.00;;;12.23;;
67867;SDS011;54672;46.096;14.470;2024-03-02T09:14:31;32.97;;;12.82;;
67867;SDS011;54672;46.096;14.470;2024-03-02T09:16:56;40.03;;;13.43;;
67867;SDS011;54672;46.096;14.470;2024-03-02T09:19:22;31.45;;;13.57;;
67867;SDS011;54672;46.096;14.470;2024-03-02T09:21:47;32.75;;;13.85;;
67867;SDS011;54672;46.096;14.470;2024-03-02T09:24:13;32.67;;;13.00;;
67867;SDS011;54672;46.096;14.470;2024-03-02T09:26:38;25.10;;;12.82;;
67867;SDS011;54672;46.096;14.470;2024-03-02T09:29:04;29.52;;;12.70;;
67867;SDS011;54672;46.096;14.470;2024-03-02T09:31:29;31.75;;;13.15;;
67867;SDS011;54672;46.096;14.470;2024-03-02T09:33:55;27.88;;;11.45;;
67867;SDS011;54672;46.096;14.470;2024-03-02T09:36:21;33.58;;;12.63;;
67867;SDS011;54672;46.096;14.470;2024-03-02T09:38:48;29.75;;;11.55;;
67867;SDS011;54672;46.096;14.470;2024-03-02T09:41:14;33.25;;;12.48;;
67867;SDS011;54672;46.096;14.470;2024-03-02T09:43:40;27.17;;;11.43;;
67867;SDS011;54672;46.096;14.470;2024-03-02T09:46:09;37.47;;;14.35;;
67867;SDS011;54672;46.096;14.470;2024-03-02T09:48:35;27.08;;;11.82;;
67867;SDS011;54672;46.096;14.470;2024-03-02T09:51:01;30.80;;;13.00;;
67867;SDS011;54672;46.096;14.470;2024-03-02T09:53:31;29.58;;;12.40;;
67867;SDS011;54672;46.096;14.470;2024-03-02T09:56:01;26.80;;;11.63;;
67867;SDS011;54672;46.096;14.470;2024-03-02T09:58:27;26.20;;;11.20;;
67867;SDS011;54672;46.096;14.470;2024-03-02T10:00:53;25.98;;;11.48;;
67867;SDS011;54672;46.096;14.470;2024-03-02T10:03:18;25.15;;;12.07;;
67867;SDS011;54672;46.096;14.470;2024-03-02T10:05:44;27.00;;;11.85;;
67867;SDS011;54672;46.096;14.470;2024-03-02T10:08:10;26.88;;;11.77;;
67867;SDS011;54672;46.096;14.470;2024-03-02T10:10:41;25.25;;;11.00;;
67867;SDS011;54672;46.096;14.470;2024-03-02T10:15:34;23.45;;;11.68;;
67867;SDS011;54672;46.096;14.470;2024-03-02T10:18:02;24.95;;;10.32;;
67867;SDS011;54672;46.096;14.470;2024-03-02T10:20:28;23.35;;;10.85;;
67867;SDS011;54672;46.096;14.470;2024-03-02T10:22:54;28.08;;;12.23;;
67867;SDS011;54672;46.096;14.470;2024-03-02T10:25:31;28.02;;;12.13;;
67867;SDS011;54672;46.096;14.470;2024-03-02T10:28:01;24.38;;;11.50;;
67867;SDS011;54672;46.096;14.470;2024-03-02T10:30:27;25.23;;;10.52;;
67867;SDS011;54672;46.096;14.470;2024-03-02T10:32:56;23.25;;;10.60;;
67867;SDS011;54672;46.096;14.470;2024-03-02T10:35:22;21.70;;;10.35;;
67867;SDS011;54672;46.096;14.470;2024-03-02T10:37:51;22.23;;;10.52;;
67867;SDS011;54672;46.096;14.470;2024-03-02T10:40:18;25.80;;;10.57;;
67867;SDS011;54672;46.096;14.470;2024-03-02T10:42:46;22.88;;;10.05;;
67867;SDS011;54672;46.096;14.470;2024-03-02T10:45:14;19.50;;;10.30;;
67867;SDS011;54672;46.096;14.470;2024-03-02T10:47:40;20.92;;;8.38;;
67867;SDS011;54672;46.096;14.470;2024-03-02T10:50:10;17.27;;;8.68;;
67867;SDS011;54672;46.096;14.470;2024-03-02T10:52:36;21.15;;;10.32;;
67867;SDS011;54672;46.096;14.470;2024-03-02T10:55:03;19.58;;;9.95;;
67867;SDS011;54672;46.096;14.470;2024-03-02T10:57:33;24.40;;;9.68;;
67867;SDS011;54672;46.096;14.470;2024-03-02T11:00:06;20.98;;;9.77;;
67867;SDS011;54672;46.096;14.470;2024-03-02T11:02:40;19.25;;;9.23;;
67867;SDS011;54672;46.096;14.470;2024-03-02T11:05:16;17.30;;;8.70;;
67867;SDS011;54672;46.096;14.470;2024-03-02T11:07:50;19.85;;;9.20;;
67867;SDS011;54672;46.096;14.470;2024-03-02T11:10:18;16.88;;;8.50;;
67867;SDS011;54672;46.096;14.470;2024-03-02T11:12:56;17.73;;;8.45;;
67867;SDS011;54672;46.096;14.470;2024-03-02T11:15:27;16.80;;;8.80;;
67867;SDS011;54672;46.096;14.470;2024-03-02T11:18:13;15.95;;;7.45;;
67867;SDS011;54672;46.096;14.470;2024-03-02T11:20:41;19.92;;;8.15;;
67867;SDS011;54672;46.096;14.470;2024-03-02T11:23:08;18.27;;;8.63;;
67867;SDS011;54672;46.096;14.470;2024-03-02T11:25:34;15.40;;;7.60;;
67867;SDS011;54672;46.096;14.470;2024-03-02T11:28:01;14.82;;;7.88;;
67867;SDS011;54672;46.096;14.470;2024-03-02T11:35:32;15.15;;;6.45;;
67867;SDS011;54672;46.096;14.470;2024-03-02T11:38:08;14.23;;;6.07;;
67867;SDS011;54672;46.096;14.470;2024-03-02T11:40:34;15.07;;;6.78;;
67867;SDS011;54672;46.096;14.470;2024-03-02T11:43:00;14.93;;;6.82;;
67867;SDS011;54672;46.096;14.470;2024-03-02T11:45:26;15.30;;;8.25;;
67867;SDS011;54672;46.096;14.470;2024-03-02T11:47:56;17.50;;;8.02;;
67867;SDS011;54672;46.096;14.470;2024-03-02T11:50:35;14.85;;;7.25;;
67867;SDS011;54672;46.096;14.470;2024-03-02T11:53:05;15.90;;;7.30;;
67867;SDS011;54672;46.096;14.470;2024-03-02T11:55:37;14.10;;;6.72;;
67867;SDS011;54672;46.096;14.470;2024-03-02T11:58:04;16.13;;;6.15;;
67867;SDS011;54672;46.096;14.470;2024-03-02T12:00:31;14.18;;;7.30;;
67867;SDS011;54672;46.096;14.470;2024-03-02T12:03:04;14.73;;;6.22;;
67867;SDS011;54672;46.096;14.470;2024-03-02T12:05:31;13.75;;;6.20;;
67867;SDS011;54672;46.096;14.470;2024-03-02T12:08:01;14.40;;;5.93;;
67867;SDS011;54672;46.096;14.470;2024-03-02T12:10:31;11.63;;;5.50;;
67867;SDS011;54672;46.096;14.470;2024-03-02T12:12:58;14.27;;;6.43;;
67867;SDS011;54672;46.096;14.470;2024-03-02T12:15:32;12.63;;;5.43;;
67867;SDS011;54672;46.096;14.470;2024-03-02T12:17:58;11.63;;;5.05;;
67867;SDS011;54672;46.096;14.470;2024-03-02T12:20:26;11.63;;;5.25;;
67867;SDS011;54672;46.096;14.470;2024-03-02T12:22:54;9.48;;;4.05;;
67867;SDS011;54672;46.096;14.470;2024-03-02T12:25:21;11.32;;;5.25;;
67867;SDS011;54672;46.096;14.470;2024-03-02T12:27:49;13.73;;;5.07;;
67867;SDS011;54672;46.096;14.470;2024-03-02T12:30:16;9.18;;;4.32;;
67867;SDS011;54672;46.096;14.470;2024-03-02T12:32:42;12.13;;;5.25;;
67867;SDS011;54672;46.096;14.470;2024-03-02T12:35:10;9.80;;;4.50;;
67867;SDS011;54672;46.096;14.470;2024-03-02T12:37:46;12.45;;;5.18;;
67867;SDS011;54672;46.096;14.470;2024-03-02T12:40:13;10.82;;;4.72;;
67867;SDS011;54672;46.096;14.470;2024-03-02T12:42:40;8.93;;;5.20;;
67867;SDS011;54672;46.096;14.470;2024-03-02T12:45:10;8.82;;;4.68;;
67867;SDS011;54672;46.096;14.470;2024-03-02T12:47:36;10.65;;;4.90;;
67867;SDS011;54672;46.096;14.470;2024-03-02T12:50:03;11.27;;;4.85;;
67867;SDS011;54672;46.096;14.470;2024-03-02T12:52:29;10.07;;;5.32;;
67867;SDS011;54672;46.096;14.470;2024-03-02T12:54:57;9.23;;;5.00;;
67867;SDS011;54672;46.096;14.470;2024-03-02T12:57:29;10.13;;;4.90;;
67867;SDS011;54672;46.096;14.470;2024-03-02T12:59:58;9.18;;;4.80;;
67867;SDS011;54672;46.096;14.470;2024-03-02T13:02:27;10.45;;;5.32;;
67867;SDS011;54672;46.096;14.470;2024-03-02T13:04:53;10.90;;;5.28;;
67867;SDS011;54672;46.096;14.470;2024-03-02T13:07:19;11.23;;;5.20;;
67867;SDS011;54672;46.096;14.470;2024-03-02T13:09:47;9.90;;;5.07;;
67867;SDS011;54672;46.096;14.470;2024-03-02T13:12:17;8.35;;;4.63;;
67867;SDS011;54672;46.096;14.470;2024-03-02T13:14:44;8.45;;;4.50;;
67867;SDS011;54672;46.096;14.470;2024-03-02T13:17:09;8.38;;;4.47;;
67867;SDS011;54672;46.096;14.470;2024-03-02T13:19:35;8.13;;;4.70;;
67867;SDS011;54672;46.096;14.470;2024-03-02T13:22:00;10.07;;;4.70;;
67867;SDS011;54672;46.096;14.470;2024-03-02T13:24:29;9.50;;;4.25;;
67867;SDS011;54672;46.096;14.470;2024-03-02T13:26:56;9.60;;;4.45;;
67867;SDS011;54672;46.096;14.470;2024-03-02T13:29:22;10.10;;;5.22;;
67867;SDS011;54672;46.096;14.470;2024-03-02T13:31:48;8.85;;;3.83;;
67867;SDS011;54672;46.096;14.470;2024-03-02T13:34:13;8.93;;;3.45;;
67867;SDS011;54672;46.096;14.470;2024-03-02T13:36:39;6.13;;;3.90;;
67867;SDS011;54672;46.096;14.470;2024-03-02T13:39:04;8.32;;;3.90;;
67867;SDS011;54672;46.096;14.470;2024-03-02T13:41:34;5.20;;;3.13;;
67867;SDS011;54672;46.096;14.470;2024-03-02T13:44:01;5.95;;;2.95;;
67867;SDS011;54672;46.096;14.470;2024-03-02T13:46:28;6.93;;;3.25;;
67867;SDS011;54672;46.096;14.470;2024-03-02T13:48:54;4.22;;;2.20;;
67867;SDS011;54672;46.096;14.470;2024-03-02T13:51:20;3.47;;;1.77;;
67867;SDS011;54672;46.096;14.470;2024-03-02T13:53:45;5.18;;;1.90;;
67867;SDS011;54672;46.096;14.470;2024-03-02T13:56:11;3.05;;;1.55;;
67867;SDS011;54672;46.096;14.470;2024-03-02T13:58:37;3.50;;;1.80;;
67867;SDS011;54672;46.096;14.470;2024-03-02T14:01:02;5.43;;;2.67;;
67867;SDS011;54672;46.096;14.470;2024-03-02T14:03:29;7.60;;;4.05;;
67867;SDS011;54672;46.096;14.470;2024-03-02T14:05:55;11.18;;;5.03;;
67867;SDS011;54672;46.096;14.470;2024-03-02T14:08:20;10.15;;;4.43;;
67867;SDS011;54672;46.096;14.470;2024-03-02T14:10:46;7.38;;;3.72;;
67867;SDS011;54672;46.096;14.470;2024-03-02T14:13:12;9.60;;;4.32;;
67867;SDS011;54672;46.096;14.470;2024-03-02T14:15:37;8.70;;;3.78;;
67867;SDS011;54672;46.096;14.470;2024-03-02T14:18:06;2.72;;;1.50;;
67867;SDS011;54672;46.096;14.470;2024-03-02T14:20:31;1.90;;;1.20;;
67867;SDS011;54672;46.096;14.470;2024-03-02T14:22:58;2.00;;;1.10;;